sensor_id;sensor_type;location;lat;lon;timestamp;P1;durP1;ratioP1;P2;durP2;ratioP2
14847;SDS011;7516;43.570;1.448;2023-02-16T00:01:32;10.33;;;8.00;;
14847;SDS011;7516;43.570;1.448;2023-02-16T00:04:03;10.50;;;8.30;;
14847;SDS011;7516;43.570;1.448;2023-02-16T00:06:42;10.57;;;8.20;;
14847;SDS011;7516;43.570;1.448;2023-02-16T00:09:10;9.67;;;8.10;;
14847;SDS011;7516;43.570;1.448;2023-02-16T00:11:37;10.53;;;8.00;;
14847;SDS011;7516;43.570;1.448;2023-02-16T00:14:22;11.37;;;8.43;;
14847;SDS011;7516;43.570;1.448;2023-02-16T00:16:51;10.03;;;8.07;;
14847;SDS011;7516;43.570;1.448;2023-02-16T00:19:21;10.40;;;7.77;;
14847;SDS011;7516;43.570;1.448;2023-02-16T00:21:50;14.17;;;8.03;;
14847;SDS011;7516;43.570;1.448;2023-02-16T00:24:19;12.53;;;8.43;;
14847;SDS011;7516;43.570;1.448;2023-02-16T00:26:48;11.50;;;8.03;;
14847;SDS011;7516;43.570;1.448;2023-02-16T00:29:17;10.30;;;7.60;;
14847;SDS011;7516;43.570;1.448;2023-02-16T00:31:48;10.87;;;6.97;;
14847;SDS011;7516;43.570;1.448;2023-02-16T00:34:25;10.33;;;7.27;;
14847;SDS011;7516;43.570;1.448;2023-02-16T00:36:55;8.60;;;7.33;;
14847;SDS011;7516;43.570;1.448;2023-02-16T00:39:24;10.10;;;7.00;;
14847;SDS011;7516;43.570;1.448;2023-02-16T00:41:53;8.67;;;7.07;;
14847;SDS011;7516;43.570;1.448;2023-02-16T00:44:28;11.23;;;7.37;;
14847;SDS011;7516;43.570;1.448;2023-02-16T00:46:58;9.53;;;7.70;;
14847;SDS011;7516;43.570;1.448;2023-02-16T00:49:29;8.97;;;7.00;;
14847;SDS011;7516;43.570;1.448;2023-02-16T00:51:57;11.27;;;7.07;;
14847;SDS011;7516;43.570;1.448;2023-02-16T00:54:25;10.30;;;6.97;;
14847;SDS011;7516;43.570;1.448;2023-02-16T00:56:52;10.10;;;7.73;;
14847;SDS011;7516;43.570;1.448;2023-02-16T00:59:20;10.77;;;7.50;;
14847;SDS011;7516;43.570;1.448;2023-02-16T01:01:48;10.50;;;7.63;;
14847;SDS011;7516;43.570;1.448;2023-02-16T01:04:18;9.13;;;7.07;;
14847;SDS011;7516;43.570;1.448;2023-02-16T01:06:48;9.47;;;7.90;;
14847;SDS011;7516;43.570;1.448;2023-02-16T01:09:33;11.87;;;7.50;;
14847;SDS011;7516;43.570;1.448;2023-02-16T01:12:19;9.83;;;7.40;;
14847;SDS011;7516;43.570;1.448;2023-02-16T01:14:49;10.10;;;8.30;;
14847;SDS011;7516;43.570;1.448;2023-02-16T01:17:18;10.53;;;7.57;;
14847;SDS011;7516;43.570;1.448;2023-02-16T01:19:46;10.23;;;7.97;;
14847;SDS011;7516;43.570;1.448;2023-02-16T01:22:15;9.67;;;7.57;;
14847;SDS011;7516;43.570;1.448;2023-02-16T01:24:42;9.27;;;7.43;;
14847;SDS011;7516;43.570;1.448;2023-02-16T01:27:11;12.57;;;7.53;;
14847;SDS011;7516;43.570;1.448;2023-02-16T01:29:39;10.00;;;7.77;;
14847;SDS011;7516;43.570;1.448;2023-02-16T01:32:08;10.63;;;8.17;;
14847;SDS011;7516;43.570;1.448;2023-02-16T01:34:37;11.07;;;8.07;;
14847;SDS011;7516;43.570;1.448;2023-02-16T01:37:04;9.90;;;7.60;;
14847;SDS011;7516;43.570;1.448;2023-02-16T01:39:39;10.43;;;8.00;;
14847;SDS011;7516;43.570;1.448;2023-02-16T01:42:18;8.43;;;7.07;;
14847;SDS011;7516;43.570;1.448;2023-02-16T01:44:56;9.80;;;7.50;;
14847;SDS011;7516;43.570;1.448;2023-02-16T01:47:33;9.90;;;7.70;;
14847;SDS011;7516;43.570;1.448;2023-02-16T01:52:51;9.20;;;7.63;;
14847;SDS011;7516;43.570;1.448;2023-02-16T01:55:25;10.37;;;8.07;;
14847;SDS011;7516;43.570;1.448;2023-02-16T01:57:55;10.80;;;8.30;;
14847;SDS011;7516;43.570;1.448;2023-02-16T02:00:28;9.97;;;8.23;;
14847;SDS011;7516;43.570;1.448;2023-02-16T02:03:18;10.17;;;8.10;;
14847;SDS011;7516;43.570;1.448;2023-02-16T02:06:05;12.30;;;8.40;;
14847;SDS011;7516;43.570;1.448;2023-02-16T02:08:36;11.40;;;8.20;;
14847;SDS011;7516;43.570;1.448;2023-02-16T02:11:10;8.97;;;7.83;;
14847;SDS011;7516;43.570;1.448;2023-02-16T02:13:43;9.07;;;7.53;;
14847;SDS011;7516;43.570;1.448;2023-02-16T02:16:16;8.90;;;7.90;;
14847;SDS011;7516;43.570;1.448;2023-02-16T02:18:45;11.33;;;7.80;;
14847;SDS011;7516;43.570;1.448;2023-02-16T02:24:39;10.13;;;7.67;;
14847;SDS011;7516;43.570;1.448;2023-02-16T02:27:30;10.50;;;7.63;;
14847;SDS011;7516;43.570;1.448;2023-02-16T02:33:09;10.77;;;7.60;;
14847;SDS011;7516;43.570;1.448;2023-02-16T02:36:03;10.80;;;7.87;;
14847;SDS011;7516;43.570;1.448;2023-02-16T02:38:46;9.07;;;7.73;;
14847;SDS011;7516;43.570;1.448;2023-02-16T02:41:24;10.43;;;7.93;;
14847;SDS011;7516;43.570;1.448;2023-02-16T02:44:12;10.60;;;8.23;;
14847;SDS011;7516;43.570;1.448;2023-02-16T02:46:43;10.67;;;8.00;;
14847;SDS011;7516;43.570;1.448;2023-02-16T02:49:12;10.10;;;8.47;;
14847;SDS011;7516;43.570;1.448;2023-02-16T02:51:39;11.33;;;8.83;;
14847;SDS011;7516;43.570;1.448;2023-02-16T02:54:07;12.13;;;8.73;;
14847;SDS011;7516;43.570;1.448;2023-02-16T02:56:59;13.40;;;9.47;;
14847;SDS011;7516;43.570;1.448;2023-02-16T02:59:50;14.43;;;10.43;;
14847;SDS011;7516;43.570;1.448;2023-02-16T03:02:39;15.43;;;10.50;;
14847;SDS011;7516;43.570;1.448;2023-02-16T03:05:08;16.90;;;10.40;;
14847;SDS011;7516;43.570;1.448;2023-02-16T03:07:39;18.23;;;10.67;;
14847;SDS011;7516;43.570;1.448;2023-02-16T03:10:13;15.30;;;10.77;;
14847;SDS011;7516;43.570;1.448;2023-02-16T03:13:00;13.13;;;10.27;;
14847;SDS011;7516;43.570;1.448;2023-02-16T03:15:30;14.80;;;10.83;;
14847;SDS011;7516;43.570;1.448;2023-02-16T03:18:00;12.37;;;9.73;;
14847;SDS011;7516;43.570;1.448;2023-02-16T03:20:47;16.17;;;9.33;;
14847;SDS011;7516;43.570;1.448;2023-02-16T03:23:33;12.53;;;9.57;;
14847;SDS011;7516;43.570;1.448;2023-02-16T03:26:22;18.50;;;10.47;;
14847;SDS011;7516;43.570;1.448;2023-02-16T03:29:10;13.33;;;9.17;;
14847;SDS011;7516;43.570;1.448;2023-02-16T03:31:48;13.63;;;10.13;;
14847;SDS011;7516;43.570;1.448;2023-02-16T03:34:17;14.23;;;9.53;;
14847;SDS011;7516;43.570;1.448;2023-02-16T03:36:47;13.40;;;10.03;;
14847;SDS011;7516;43.570;1.448;2023-02-16T03:39:16;12.97;;;9.90;;
14847;SDS011;7516;43.570;1.448;2023-02-16T03:41:45;12.07;;;9.90;;
14847;SDS011;7516;43.570;1.448;2023-02-16T03:44:15;15.00;;;10.70;;
14847;SDS011;7516;43.570;1.448;2023-02-16T03:46:43;13.40;;;10.40;;
14847;SDS011;7516;43.570;1.448;2023-02-16T03:49:15;13.07;;;10.17;;
14847;SDS011;7516;43.570;1.448;2023-02-16T03:51:43;13.03;;;9.73;;
14847;SDS011;7516;43.570;1.448;2023-02-16T03:54:11;12.60;;;9.60;;
14847;SDS011;7516;43.570;1.448;2023-02-16T03:56:39;12.90;;;8.70;;
14847;SDS011;7516;43.570;1.448;2023-02-16T03:59:06;13.07;;;9.87;;
14847;SDS011;7516;43.570;1.448;2023-02-16T04:01:34;10.67;;;8.97;;
14847;SDS011;7516;43.570;1.448;2023-02-16T04:04:01;10.17;;;8.33;;
14847;SDS011;7516;43.570;1.448;2023-02-16T04:06:30;12.93;;;9.00;;
14847;SDS011;7516;43.570;1.448;2023-02-16T04:08:58;9.23;;;7.87;;
14847;SDS011;7516;43.570;1.448;2023-02-16T04:11:25;10.67;;;8.70;;
14847;SDS011;7516;43.570;1.448;2023-02-16T04:14:10;9.60;;;8.00;;
14847;SDS011;7516;43.570;1.448;2023-02-16T04:16:38;14.83;;;11.53;;
14847;SDS011;7516;43.570;1.448;2023-02-16T04:19:05;15.90;;;11.73;;
14847;SDS011;7516;43.570;1.448;2023-02-16T04:21:35;14.37;;;11.43;;
14847;SDS011;7516;43.570;1.448;2023-02-16T04:24:02;15.47;;;10.33;;
14847;SDS011;7516;43.570;1.448;2023-02-16T04:26:30;14.40;;;10.57;;
14847;SDS011;7516;43.570;1.448;2023-02-16T04:28:58;13.90;;;10.00;;
14847;SDS011;7516;43.570;1.448;2023-02-16T04:31:26;11.93;;;9.33;;
14847;SDS011;7516;43.570;1.448;2023-02-16T04:33:53;12.17;;;9.90;;
14847;SDS011;7516;43.570;1.448;2023-02-16T04:36:21;12.80;;;9.57;;
14847;SDS011;7516;43.570;1.448;2023-02-16T04:38:50;12.50;;;9.53;;
14847;SDS011;7516;43.570;1.448;2023-02-16T04:41:17;11.53;;;8.90;;
14847;SDS011;7516;43.570;1.448;2023-02-16T04:43:45;10.37;;;8.03;;
14847;SDS011;7516;43.570;1.448;2023-02-16T04:46:12;9.60;;;7.77;;
14847;SDS011;7516;43.570;1.448;2023-02-16T04:48:40;12.27;;;9.57;;
14847;SDS011;7516;43.570;1.448;2023-02-16T04:51:07;11.73;;;9.30;;
14847;SDS011;7516;43.570;1.448;2023-02-16T04:53:35;9.30;;;7.80;;
14847;SDS011;7516;43.570;1.448;2023-02-16T04:56:04;12.17;;;9.10;;
14847;SDS011;7516;43.570;1.448;2023-02-16T04:58:34;12.40;;;8.70;;
14847;SDS011;7516;43.570;1.448;2023-02-16T05:01:02;10.40;;;7.97;;
14847;SDS011;7516;43.570;1.448;2023-02-16T05:03:29;10.30;;;7.97;;
14847;SDS011;7516;43.570;1.448;2023-02-16T05:05:57;14.47;;;10.97;;
14847;SDS011;7516;43.570;1.448;2023-02-16T05:08:25;13.97;;;10.67;;
14847;SDS011;7516;43.570;1.448;2023-02-16T05:10:52;14.57;;;9.50;;
14847;SDS011;7516;43.570;1.448;2023-02-16T05:13:35;15.13;;;11.17;;
14847;SDS011;7516;43.570;1.448;2023-02-16T05:16:20;16.50;;;11.60;;
14847;SDS011;7516;43.570;1.448;2023-02-16T05:18:49;16.83;;;11.07;;
14847;SDS011;7516;43.570;1.448;2023-02-16T05:21:17;15.87;;;11.10;;
14847;SDS011;7516;43.570;1.448;2023-02-16T05:23:57;16.10;;;11.17;;
14847;SDS011;7516;43.570;1.448;2023-02-16T05:26:25;18.63;;;12.53;;
14847;SDS011;7516;43.570;1.448;2023-02-16T05:28:55;14.53;;;11.23;;
14847;SDS011;7516;43.570;1.448;2023-02-16T05:31:25;15.53;;;10.17;;
14847;SDS011;7516;43.570;1.448;2023-02-16T05:33:53;17.67;;;11.13;;
14847;SDS011;7516;43.570;1.448;2023-02-16T05:36:21;19.03;;;14.37;;
14847;SDS011;7516;43.570;1.448;2023-02-16T05:38:49;18.70;;;11.90;;
14847;SDS011;7516;43.570;1.448;2023-02-16T05:41:17;16.57;;;11.93;;
14847;SDS011;7516;43.570;1.448;2023-02-16T05:43:49;14.77;;;10.53;;
14847;SDS011;7516;43.570;1.448;2023-02-16T05:46:18;11.10;;;8.73;;
14847;SDS011;7516;43.570;1.448;2023-02-16T05:48:47;13.43;;;8.53;;
14847;SDS011;7516;43.570;1.448;2023-02-16T05:51:14;9.97;;;7.90;;
14847;SDS011;7516;43.570;1.448;2023-02-16T05:53:42;13.07;;;9.13;;
14847;SDS011;7516;43.570;1.448;2023-02-16T05:56:10;11.83;;;8.83;;
14847;SDS011;7516;43.570;1.448;2023-02-16T05:58:38;10.43;;;8.17;;
14847;SDS011;7516;43.570;1.448;2023-02-16T06:01:06;12.77;;;9.47;;
14847;SDS011;7516;43.570;1.448;2023-02-16T06:03:35;12.87;;;8.87;;
14847;SDS011;7516;43.570;1.448;2023-02-16T06:06:03;10.20;;;8.47;;
14847;SDS011;7516;43.570;1.448;2023-02-16T06:08:31;13.27;;;9.23;;
14847;SDS011;7516;43.570;1.448;2023-02-16T06:10:59;10.67;;;8.57;;
14847;SDS011;7516;43.570;1.448;2023-02-16T06:13:26;11.77;;;9.63;;
14847;SDS011;7516;43.570;1.448;2023-02-16T06:15:55;10.80;;;8.80;;
14847;SDS011;7516;43.570;1.448;2023-02-16T06:18:23;11.07;;;8.97;;
14847;SDS011;7516;43.570;1.448;2023-02-16T06:20:55;11.77;;;9.03;;
14847;SDS011;7516;43.570;1.448;2023-02-16T06:23:23;12.97;;;9.23;;
14847;SDS011;7516;43.570;1.448;2023-02-16T06:25:50;11.83;;;8.93;;
14847;SDS011;7516;43.570;1.448;2023-02-16T06:28:18;11.10;;;8.07;;
14847;SDS011;7516;43.570;1.448;2023-02-16T06:30:45;9.90;;;7.60;;
14847;SDS011;7516;43.570;1.448;2023-02-16T06:33:13;12.60;;;8.50;;
14847;SDS011;7516;43.570;1.448;2023-02-16T06:35:40;13.63;;;8.13;;
14847;SDS011;7516;43.570;1.448;2023-02-16T06:38:09;11.13;;;7.90;;
14847;SDS011;7516;43.570;1.448;2023-02-16T06:40:36;12.33;;;8.10;;
14847;SDS011;7516;43.570;1.448;2023-02-16T06:43:04;10.70;;;8.63;;
14847;SDS011;7516;43.570;1.448;2023-02-16T06:45:32;9.67;;;7.90;;
14847;SDS011;7516;43.570;1.448;2023-02-16T06:47:59;9.90;;;7.97;;
14847;SDS011;7516;43.570;1.448;2023-02-16T06:50:27;10.60;;;8.67;;
14847;SDS011;7516;43.570;1.448;2023-02-16T06:52:54;11.67;;;8.10;;
14847;SDS011;7516;43.570;1.448;2023-02-16T06:55:23;10.53;;;8.03;;
14847;SDS011;7516;43.570;1.448;2023-02-16T06:57:51;10.37;;;8.07;;
14847;SDS011;7516;43.570;1.448;2023-02-16T07:00:19;11.53;;;8.00;;
14847;SDS011;7516;43.570;1.448;2023-02-16T07:02:46;9.27;;;7.57;;
14847;SDS011;7516;43.570;1.448;2023-02-16T07:05:14;10.40;;;8.03;;
14847;SDS011;7516;43.570;1.448;2023-02-16T07:07:42;11.20;;;7.77;;
14847;SDS011;7516;43.570;1.448;2023-02-16T07:10:10;10.13;;;7.93;;
14847;SDS011;7516;43.570;1.448;2023-02-16T07:12:39;10.43;;;7.83;;
14847;SDS011;7516;43.570;1.448;2023-02-16T07:15:07;12.40;;;7.93;;
14847;SDS011;7516;43.570;1.448;2023-02-16T07:17:35;9.67;;;7.90;;
14847;SDS011;7516;43.570;1.448;2023-02-16T07:20:03;11.67;;;7.93;;
14847;SDS011;7516;43.570;1.448;2023-02-16T07:22:31;13.03;;;9.07;;
14847;SDS011;7516;43.570;1.448;2023-02-16T07:24:59;13.77;;;8.80;;
14847;SDS011;7516;43.570;1.448;2023-02-16T07:27:28;16.03;;;8.53;;
14847;SDS011;7516;43.570;1.448;2023-02-16T07:29:57;15.73;;;8.87;;
14847;SDS011;7516;43.570;1.448;2023-02-16T07:32:27;15.20;;;8.97;;
14847;SDS011;7516;43.570;1.448;2023-02-16T07:34:56;17.00;;;8.77;;
14847;SDS011;7516;43.570;1.448;2023-02-16T07:37:23;18.00;;;9.23;;
14847;SDS011;7516;43.570;1.448;2023-02-16T07:39:51;16.80;;;9.70;;
14847;SDS011;7516;43.570;1.448;2023-02-16T07:42:18;19.93;;;9.03;;
14847;SDS011;7516;43.570;1.448;2023-02-16T07:44:46;15.67;;;8.83;;
14847;SDS011;7516;43.570;1.448;2023-02-16T07:47:15;15.40;;;9.03;;
14847;SDS011;7516;43.570;1.448;2023-02-16T07:49:43;20.33;;;9.40;;
14847;SDS011;7516;43.570;1.448;2023-02-16T07:52:10;12.53;;;8.40;;
14847;SDS011;7516;43.570;1.448;2023-02-16T07:54:38;13.57;;;8.77;;
14847;SDS011;7516;43.570;1.448;2023-02-16T07:57:05;11.27;;;7.30;;
14847;SDS011;7516;43.570;1.448;2023-02-16T07:59:33;17.13;;;7.87;;
14847;SDS011;7516;43.570;1.448;2023-02-16T08:02:00;14.23;;;7.63;;
14847;SDS011;7516;43.570;1.448;2023-02-16T08:04:29;11.87;;;8.33;;
14847;SDS011;7516;43.570;1.448;2023-02-16T08:06:59;13.67;;;8.13;;
14847;SDS011;7516;43.570;1.448;2023-02-16T08:09:27;11.30;;;8.70;;
14847;SDS011;7516;43.570;1.448;2023-02-16T08:11:54;15.77;;;8.77;;
14847;SDS011;7516;43.570;1.448;2023-02-16T08:14:22;11.23;;;7.50;;
14847;SDS011;7516;43.570;1.448;2023-02-16T08:16:49;10.00;;;8.13;;
14847;SDS011;7516;43.570;1.448;2023-02-16T08:19:17;12.03;;;7.77;;
14847;SDS011;7516;43.570;1.448;2023-02-16T08:21:46;13.40;;;7.23;;
14847;SDS011;7516;43.570;1.448;2023-02-16T08:24:13;9.90;;;7.43;;
14847;SDS011;7516;43.570;1.448;2023-02-16T08:26:41;9.13;;;7.17;;
14847;SDS011;7516;43.570;1.448;2023-02-16T08:29:14;10.70;;;7.60;;
14847;SDS011;7516;43.570;1.448;2023-02-16T08:31:43;15.97;;;7.80;;
14847;SDS011;7516;43.570;1.448;2023-02-16T08:34:11;10.17;;;7.90;;
14847;SDS011;7516;43.570;1.448;2023-02-16T08:36:40;8.70;;;6.53;;
14847;SDS011;7516;43.570;1.448;2023-02-16T08:39:12;9.07;;;7.50;;
14847;SDS011;7516;43.570;1.448;2023-02-16T08:41:41;9.40;;;7.30;;
14847;SDS011;7516;43.570;1.448;2023-02-16T08:44:10;11.63;;;8.13;;
14847;SDS011;7516;43.570;1.448;2023-02-16T08:46:39;12.10;;;8.70;;
14847;SDS011;7516;43.570;1.448;2023-02-16T08:49:09;10.57;;;7.73;;
14847;SDS011;7516;43.570;1.448;2023-02-16T08:51:39;12.17;;;8.37;;
14847;SDS011;7516;43.570;1.448;2023-02-16T08:54:13;10.20;;;7.27;;
14847;SDS011;7516;43.570;1.448;2023-02-16T08:56:41;10.47;;;7.73;;
14847;SDS011;7516;43.570;1.448;2023-02-16T08:59:11;10.43;;;8.13;;
14847;SDS011;7516;43.570;1.448;2023-02-16T09:01:39;10.80;;;7.90;;
14847;SDS011;7516;43.570;1.448;2023-02-16T09:04:07;9.73;;;7.80;;
14847;SDS011;7516;43.570;1.448;2023-02-16T09:06:36;9.80;;;8.27;;
14847;SDS011;7516;43.570;1.448;2023-02-16T09:09:04;11.30;;;8.07;;
14847;SDS011;7516;43.570;1.448;2023-02-16T09:11:34;11.53;;;8.43;;
14847;SDS011;7516;43.570;1.448;2023-02-16T09:14:02;11.00;;;8.67;;
14847;SDS011;7516;43.570;1.448;2023-02-16T09:16:30;10.50;;;8.53;;
14847;SDS011;7516;43.570;1.448;2023-02-16T09:19:00;10.63;;;8.47;;
14847;SDS011;7516;43.570;1.448;2023-02-16T09:21:29;10.07;;;8.33;;
14847;SDS011;7516;43.570;1.448;2023-02-16T09:23:59;9.97;;;8.33;;
14847;SDS011;7516;43.570;1.448;2023-02-16T09:26:29;10.83;;;8.10;;
14847;SDS011;7516;43.570;1.448;2023-02-16T09:28:59;10.67;;;8.70;;
14847;SDS011;7516;43.570;1.448;2023-02-16T09:31:28;12.03;;;9.10;;
14847;SDS011;7516;43.570;1.448;2023-02-16T09:33:59;14.17;;;9.20;;
14847;SDS011;7516;43.570;1.448;2023-02-16T09:36:29;12.30;;;9.13;;
14847;SDS011;7516;43.570;1.448;2023-02-16T09:38:57;14.73;;;9.27;;
14847;SDS011;7516;43.570;1.448;2023-02-16T09:41:28;13.27;;;10.13;;
14847;SDS011;7516;43.570;1.448;2023-02-16T09:44:05;12.27;;;9.30;;
14847;SDS011;7516;43.570;1.448;2023-02-16T09:46:43;13.33;;;9.60;;
14847;SDS011;7516;43.570;1.448;2023-02-16T09:49:14;13.13;;;10.37;;
14847;SDS011;7516;43.570;1.448;2023-02-16T09:51:49;13.47;;;10.23;;
14847;SDS011;7516;43.570;1.448;2023-02-16T09:54:31;14.53;;;10.17;;
14847;SDS011;7516;43.570;1.448;2023-02-16T09:57:06;13.27;;;10.33;;
14847;SDS011;7516;43.570;1.448;2023-02-16T09:59:46;14.97;;;10.50;;
14847;SDS011;7516;43.570;1.448;2023-02-16T10:05:13;17.13;;;11.00;;
14847;SDS011;7516;43.570;1.448;2023-02-16T10:07:56;11.57;;;9.87;;
14847;SDS011;7516;43.570;1.448;2023-02-16T10:10:30;11.13;;;9.13;;
14847;SDS011;7516;43.570;1.448;2023-02-16T10:13:06;12.87;;;10.17;;
14847;SDS011;7516;43.570;1.448;2023-02-16T10:15:41;11.93;;;10.40;;
14847;SDS011;7516;43.570;1.448;2023-02-16T10:18:16;13.17;;;10.03;;
14847;SDS011;7516;43.570;1.448;2023-02-16T10:20:50;12.97;;;9.03;;
14847;SDS011;7516;43.570;1.448;2023-02-16T10:23:25;12.53;;;9.87;;
14847;SDS011;7516;43.570;1.448;2023-02-16T10:26:01;14.13;;;10.50;;
14847;SDS011;7516;43.570;1.448;2023-02-16T10:28:41;13.37;;;9.80;;
14847;SDS011;7516;43.570;1.448;2023-02-16T10:31:14;11.40;;;9.33;;
14847;SDS011;7516;43.570;1.448;2023-02-16T10:33:51;12.27;;;10.47;;
14847;SDS011;7516;43.570;1.448;2023-02-16T10:36:41;14.67;;;9.80;;
14847;SDS011;7516;43.570;1.448;2023-02-16T10:39:29;13.03;;;9.83;;
14847;SDS011;7516;43.570;1.448;2023-02-16T10:42:05;10.03;;;8.23;;
14847;SDS011;7516;43.570;1.448;2023-02-16T10:44:43;10.77;;;9.03;;
14847;SDS011;7516;43.570;1.448;2023-02-16T10:47:18;10.87;;;9.07;;
14847;SDS011;7516;43.570;1.448;2023-02-16T10:49:55;10.23;;;9.07;;
14847;SDS011;7516;43.570;1.448;2023-02-16T10:52:23;12.37;;;9.73;;
14847;SDS011;7516;43.570;1.448;2023-02-16T10:54:53;11.60;;;9.63;;
14847;SDS011;7516;43.570;1.448;2023-02-16T10:57:22;12.00;;;9.57;;
14847;SDS011;7516;43.570;1.448;2023-02-16T10:59:52;10.80;;;9.70;;
14847;SDS011;7516;43.570;1.448;2023-02-16T11:02:24;11.67;;;9.53;;
14847;SDS011;7516;43.570;1.448;2023-02-16T11:04:54;11.73;;;9.70;;
14847;SDS011;7516;43.570;1.448;2023-02-16T11:07:23;11.20;;;9.83;;
14847;SDS011;7516;43.570;1.448;2023-02-16T11:09:53;12.73;;;10.67;;
14847;SDS011;7516;43.570;1.448;2023-02-16T11:12:26;12.33;;;10.30;;
14847;SDS011;7516;43.570;1.448;2023-02-16T11:14:58;11.20;;;10.00;;
14847;SDS011;7516;43.570;1.448;2023-02-16T11:17:30;12.67;;;10.40;;
14847;SDS011;7516;43.570;1.448;2023-02-16T11:20:22;12.17;;;9.83;;
14847;SDS011;7516;43.570;1.448;2023-02-16T11:22:52;16.87;;;10.90;;
14847;SDS011;7516;43.570;1.448;2023-02-16T11:25:37;15.47;;;10.40;;
14847;SDS011;7516;43.570;1.448;2023-02-16T11:28:05;11.30;;;9.73;;
14847;SDS011;7516;43.570;1.448;2023-02-16T11:30:34;12.93;;;9.47;;
14847;SDS011;7516;43.570;1.448;2023-02-16T11:33:16;12.03;;;9.93;;
14847;SDS011;7516;43.570;1.448;2023-02-16T11:35:46;11.37;;;10.03;;
14847;SDS011;7516;43.570;1.448;2023-02-16T11:38:25;11.97;;;10.40;;
14847;SDS011;7516;43.570;1.448;2023-02-16T11:40:54;11.47;;;9.73;;
14847;SDS011;7516;43.570;1.448;2023-02-16T11:43:24;13.80;;;10.23;;
14847;SDS011;7516;43.570;1.448;2023-02-16T11:45:55;13.37;;;11.87;;
14847;SDS011;7516;43.570;1.448;2023-02-16T11:48:27;11.17;;;9.67;;
14847;SDS011;7516;43.570;1.448;2023-02-16T11:50:57;11.83;;;10.27;;
14847;SDS011;7516;43.570;1.448;2023-02-16T11:53:27;13.30;;;10.07;;
14847;SDS011;7516;43.570;1.448;2023-02-16T11:56:10;12.53;;;10.13;;
14847;SDS011;7516;43.570;1.448;2023-02-16T11:59:01;11.17;;;9.20;;
14847;SDS011;7516;43.570;1.448;2023-02-16T12:01:47;10.50;;;9.33;;
14847;SDS011;7516;43.570;1.448;2023-02-16T12:04:31;11.17;;;9.97;;
14847;SDS011;7516;43.570;1.448;2023-02-16T12:07:13;13.70;;;8.70;;
14847;SDS011;7516;43.570;1.448;2023-02-16T12:09:49;13.73;;;9.97;;
14847;SDS011;7516;43.570;1.448;2023-02-16T12:12:29;10.20;;;9.07;;
14847;SDS011;7516;43.570;1.448;2023-02-16T12:15:02;11.57;;;8.23;;
14847;SDS011;7516;43.570;1.448;2023-02-16T12:17:43;9.70;;;7.77;;
14847;SDS011;7516;43.570;1.448;2023-02-16T12:20:29;9.83;;;7.83;;
14847;SDS011;7516;43.570;1.448;2023-02-16T12:23:11;9.83;;;7.87;;
14847;SDS011;7516;43.570;1.448;2023-02-16T12:25:50;10.07;;;7.60;;
14847;SDS011;7516;43.570;1.448;2023-02-16T12:28:30;9.17;;;7.10;;
14847;SDS011;7516;43.570;1.448;2023-02-16T12:31:05;12.50;;;7.23;;
14847;SDS011;7516;43.570;1.448;2023-02-16T12:33:47;8.07;;;6.57;;
14847;SDS011;7516;43.570;1.448;2023-02-16T12:36:29;11.00;;;7.10;;
14847;SDS011;7516;43.570;1.448;2023-02-16T12:39:07;9.63;;;6.00;;
14847;SDS011;7516;43.570;1.448;2023-02-16T12:41:44;10.30;;;6.20;;
14847;SDS011;7516;43.570;1.448;2023-02-16T12:44:24;7.93;;;6.23;;
14847;SDS011;7516;43.570;1.448;2023-02-16T12:47:00;7.80;;;6.40;;
14847;SDS011;7516;43.570;1.448;2023-02-16T12:49:31;7.97;;;6.00;;
14847;SDS011;7516;43.570;1.448;2023-02-16T12:52:09;7.23;;;5.53;;
14847;SDS011;7516;43.570;1.448;2023-02-16T12:54:48;7.37;;;5.33;;
14847;SDS011;7516;43.570;1.448;2023-02-16T12:57:22;5.40;;;4.77;;
14847;SDS011;7516;43.570;1.448;2023-02-16T12:59:54;6.40;;;5.10;;
14847;SDS011;7516;43.570;1.448;2023-02-16T13:02:30;6.50;;;5.13;;
14847;SDS011;7516;43.570;1.448;2023-02-16T13:05:05;6.50;;;5.23;;
14847;SDS011;7516;43.570;1.448;2023-02-16T13:07:38;7.70;;;5.10;;
14847;SDS011;7516;43.570;1.448;2023-02-16T13:10:13;5.90;;;5.30;;
14847;SDS011;7516;43.570;1.448;2023-02-16T13:12:46;6.73;;;4.57;;
14847;SDS011;7516;43.570;1.448;2023-02-16T13:15:20;4.63;;;4.20;;
14847;SDS011;7516;43.570;1.448;2023-02-16T13:17:54;5.33;;;4.53;;
14847;SDS011;7516;43.570;1.448;2023-02-16T13:20:23;5.73;;;4.60;;
14847;SDS011;7516;43.570;1.448;2023-02-16T13:25:59;6.33;;;4.40;;
14847;SDS011;7516;43.570;1.448;2023-02-16T13:28:53;5.90;;;4.30;;
14847;SDS011;7516;43.570;1.448;2023-02-16T13:31:42;7.13;;;4.33;;
14847;SDS011;7516;43.570;1.448;2023-02-16T13:34:34;5.93;;;4.20;;
14847;SDS011;7516;43.570;1.448;2023-02-16T13:37:25;5.20;;;4.43;;
14847;SDS011;7516;43.570;1.448;2023-02-16T13:43:19;8.03;;;4.43;;
14847;SDS011;7516;43.570;1.448;2023-02-16T13:45:57;6.40;;;4.90;;
14847;SDS011;7516;43.570;1.448;2023-02-16T13:48:29;7.73;;;4.33;;
14847;SDS011;7516;43.570;1.448;2023-02-16T13:51:04;8.50;;;6.10;;
14847;SDS011;7516;43.570;1.448;2023-02-16T13:53:37;6.40;;;4.80;;
14847;SDS011;7516;43.570;1.448;2023-02-16T13:56:18;7.03;;;5.20;;
14847;SDS011;7516;43.570;1.448;2023-02-16T13:58:56;5.27;;;3.97;;
14847;SDS011;7516;43.570;1.448;2023-02-16T14:01:36;5.97;;;3.90;;
14847;SDS011;7516;43.570;1.448;2023-02-16T14:04:09;6.83;;;4.60;;
14847;SDS011;7516;43.570;1.448;2023-02-16T14:06:39;5.43;;;4.40;;
14847;SDS011;7516;43.570;1.448;2023-02-16T14:12:17;7.30;;;4.60;;
14847;SDS011;7516;43.570;1.448;2023-02-16T14:14:55;6.17;;;4.60;;
14847;SDS011;7516;43.570;1.448;2023-02-16T14:17:26;5.90;;;3.60;;
14847;SDS011;7516;43.570;1.448;2023-02-16T14:19:57;6.87;;;4.20;;
14847;SDS011;7516;43.570;1.448;2023-02-16T14:22:32;3.93;;;2.87;;
14847;SDS011;7516;43.570;1.448;2023-02-16T14:25:05;3.33;;;2.27;;
14847;SDS011;7516;43.570;1.448;2023-02-16T14:31:18;4.93;;;2.73;;
14847;SDS011;7516;43.570;1.448;2023-02-16T14:33:49;3.73;;;2.43;;
14847;SDS011;7516;43.570;1.448;2023-02-16T14:36:24;3.97;;;3.33;;
14847;SDS011;7516;43.570;1.448;2023-02-16T14:38:53;6.20;;;3.00;;
14847;SDS011;7516;43.570;1.448;2023-02-16T14:41:24;4.77;;;3.53;;
14847;SDS011;7516;43.570;1.448;2023-02-16T14:43:58;5.60;;;3.87;;
14847;SDS011;7516;43.570;1.448;2023-02-16T14:46:57;7.30;;;4.60;;
14847;SDS011;7516;43.570;1.448;2023-02-16T14:58:43;4.67;;;3.00;;
14847;SDS011;7516;43.570;1.448;2023-02-16T15:01:19;9.07;;;4.50;;
14847;SDS011;7516;43.570;1.448;2023-02-16T15:03:50;5.70;;;4.70;;
14847;SDS011;7516;43.570;1.448;2023-02-16T15:06:21;5.87;;;4.20;;
14847;SDS011;7516;43.570;1.448;2023-02-16T15:08:55;7.33;;;4.03;;
14847;SDS011;7516;43.570;1.448;2023-02-16T15:11:27;4.53;;;3.20;;
14847;SDS011;7516;43.570;1.448;2023-02-16T15:14:01;5.00;;;3.20;;
14847;SDS011;7516;43.570;1.448;2023-02-16T15:16:32;5.97;;;3.67;;
14847;SDS011;7516;43.570;1.448;2023-02-16T15:19:06;9.70;;;3.60;;
14847;SDS011;7516;43.570;1.448;2023-02-16T15:21:37;4.87;;;2.90;;
14847;SDS011;7516;43.570;1.448;2023-02-16T15:24:16;3.77;;;2.70;;
14847;SDS011;7516;43.570;1.448;2023-02-16T15:26:52;5.70;;;3.07;;
14847;SDS011;7516;43.570;1.448;2023-02-16T15:29:25;3.70;;;2.70;;
14847;SDS011;7516;43.570;1.448;2023-02-16T15:31:54;5.53;;;2.60;;
14847;SDS011;7516;43.570;1.448;2023-02-16T15:34:29;5.03;;;3.10;;
14847;SDS011;7516;43.570;1.448;2023-02-16T15:36:59;3.43;;;2.50;;
14847;SDS011;7516;43.570;1.448;2023-02-16T15:39:44;4.93;;;3.20;;
14847;SDS011;7516;43.570;1.448;2023-02-16T15:42:17;4.53;;;2.70;;
14847;SDS011;7516;43.570;1.448;2023-02-16T15:44:47;6.57;;;2.73;;
14847;SDS011;7516;43.570;1.448;2023-02-16T15:47:19;5.63;;;2.93;;
14847;SDS011;7516;43.570;1.448;2023-02-16T15:49:52;4.50;;;2.80;;
14847;SDS011;7516;43.570;1.448;2023-02-16T15:52:22;6.00;;;2.70;;
14847;SDS011;7516;43.570;1.448;2023-02-16T15:54:56;5.90;;;2.70;;
14847;SDS011;7516;43.570;1.448;2023-02-16T15:57:26;6.83;;;2.80;;